sensor_id;sensor_type;location;lat;lon;timestamp;P1;durP1;ratioP1;P2;durP2;ratioP2
44248;SDS011;29923;48.718;9.272;2023-10-09T00:00:33;16.17;;;6.78;;
44248;SDS011;29923;48.718;9.272;2023-10-09T00:03:04;22.67;;;7.68;;
44248;SDS011;29923;48.718;9.272;2023-10-09T00:05:31;21.05;;;7.78;;
44248;SDS011;29923;48.718;9.272;2023-10-09T00:08:17;23.35;;;7.97;;
44248;SDS011;29923;48.718;9.272;2023-10-09T00:10:46;18.00;;;7.00;;
44248;SDS011;29923;48.718;9.272;2023-10-09T00:13:18;13.63;;;6.90;;
44248;SDS011;29923;48.718;9.272;2023-10-09T00:15:52;14.35;;;7.32;;
44248;SDS011;29923;48.718;9.272;2023-10-09T00:18:22;22.98;;;7.75;;
44248;SDS011;29923;48.718;9.272;2023-10-09T00:20:54;21.92;;;7.60;;
44248;SDS011;29923;48.718;9.272;2023-10-09T00:23:20;15.73;;;7.97;;
44248;SDS011;29923;48.718;9.272;2023-10-09T00:25:50;19.52;;;7.38;;
44248;SDS011;29923;48.718;9.272;2023-10-09T00:28:38;20.15;;;7.85;;
44248;SDS011;29923;48.718;9.272;2023-10-09T00:31:09;17.58;;;7.28;;
44248;SDS011;29923;48.718;9.272;2023-10-09T00:33:40;22.10;;;6.88;;
44248;SDS011;29923;48.718;9.272;2023-10-09T00:36:06;16.23;;;6.72;;
44248;SDS011;29923;48.718;9.272;2023-10-09T00:38:38;15.85;;;6.72;;
44248;SDS011;29923;48.718;9.272;2023-10-09T00:41:15;16.40;;;6.63;;
44248;SDS011;29923;48.718;9.272;2023-10-09T00:43:50;20.08;;;6.95;;
44248;SDS011;29923;48.718;9.272;2023-10-09T00:46:17;17.60;;;7.57;;
44248;SDS011;29923;48.718;9.272;2023-10-09T00:48:46;18.63;;;7.88;;
44248;SDS011;29923;48.718;9.272;2023-10-09T00:51:13;21.48;;;7.30;;
44248;SDS011;29923;48.718;9.272;2023-10-09T00:53:46;17.33;;;7.10;;
44248;SDS011;29923;48.718;9.272;2023-10-09T00:56:16;20.23;;;6.88;;
44248;SDS011;29923;48.718;9.272;2023-10-09T00:58:52;19.67;;;7.55;;
44248;SDS011;29923;48.718;9.272;2023-10-09T01:01:25;30.30;;;7.57;;
44248;SDS011;29923;48.718;9.272;2023-10-09T01:03:59;16.75;;;7.10;;
44248;SDS011;29923;48.718;9.272;2023-10-09T01:06:24;21.92;;;7.20;;
44248;SDS011;29923;48.718;9.272;2023-10-09T01:08:53;14.75;;;6.07;;
44248;SDS011;29923;48.718;9.272;2023-10-09T01:11:34;18.90;;;7.15;;
44248;SDS011;29923;48.718;9.272;2023-10-09T01:13:59;24.75;;;6.75;;
44248;SDS011;29923;48.718;9.272;2023-10-09T01:16:37;27.85;;;7.55;;
44248;SDS011;29923;48.718;9.272;2023-10-09T01:19:03;22.05;;;6.85;;
44248;SDS011;29923;48.718;9.272;2023-10-09T01:21:38;26.65;;;7.47;;
44248;SDS011;29923;48.718;9.272;2023-10-09T01:24:04;18.92;;;6.65;;
44248;SDS011;29923;48.718;9.272;2023-10-09T01:29:20;24.50;;;7.15;;
44248;SDS011;29923;48.718;9.272;2023-10-09T01:31:47;17.77;;;6.72;;
44248;SDS011;29923;48.718;9.272;2023-10-09T01:36:49;27.13;;;7.32;;
44248;SDS011;29923;48.718;9.272;2023-10-09T01:39:21;20.50;;;7.20;;
44248;SDS011;29923;48.718;9.272;2023-10-09T01:42:04;24.10;;;6.60;;
44248;SDS011;29923;48.718;9.272;2023-10-09T01:44:31;17.92;;;6.55;;
44248;SDS011;29923;48.718;9.272;2023-10-09T01:47:03;23.13;;;7.32;;
44248;SDS011;29923;48.718;9.272;2023-10-09T01:49:39;16.23;;;6.68;;
44248;SDS011;29923;48.718;9.272;2023-10-09T01:52:08;24.70;;;7.97;;
44248;SDS011;29923;48.718;9.272;2023-10-09T01:54:41;20.30;;;7.40;;
44248;SDS011;29923;48.718;9.272;2023-10-09T01:57:11;23.45;;;8.10;;
44248;SDS011;29923;48.718;9.272;2023-10-09T01:59:40;16.17;;;6.47;;
44248;SDS011;29923;48.718;9.272;2023-10-09T02:02:12;17.20;;;6.60;;
44248;SDS011;29923;48.718;9.272;2023-10-09T02:05:03;21.33;;;7.05;;
44248;SDS011;29923;48.718;9.272;2023-10-09T02:07:49;21.30;;;7.40;;
44248;SDS011;29923;48.718;9.272;2023-10-09T02:10:18;17.73;;;6.90;;
44248;SDS011;29923;48.718;9.272;2023-10-09T02:12:56;18.40;;;7.50;;
44248;SDS011;29923;48.718;9.272;2023-10-09T02:15:32;22.95;;;7.53;;
44248;SDS011;29923;48.718;9.272;2023-10-09T02:18:06;20.65;;;8.07;;
44248;SDS011;29923;48.718;9.272;2023-10-09T02:23:25;18.88;;;6.95;;
44248;SDS011;29923;48.718;9.272;2023-10-09T02:26:12;16.60;;;7.15;;
44248;SDS011;29923;48.718;9.272;2023-10-09T02:28:50;15.10;;;7.00;;
44248;SDS011;29923;48.718;9.272;2023-10-09T02:31:25;18.25;;;7.47;;
44248;SDS011;29923;48.718;9.272;2023-10-09T02:33:53;17.63;;;6.85;;
44248;SDS011;29923;48.718;9.272;2023-10-09T02:36:21;18.65;;;7.97;;
44248;SDS011;29923;48.718;9.272;2023-10-09T02:38:46;20.00;;;7.28;;
44248;SDS011;29923;48.718;9.272;2023-10-09T02:41:14;18.52;;;7.47;;
44248;SDS011;29923;48.718;9.272;2023-10-09T02:43:40;22.70;;;8.18;;
44248;SDS011;29923;48.718;9.272;2023-10-09T02:46:10;17.02;;;7.20;;
44248;SDS011;29923;48.718;9.272;2023-10-09T02:48:48;21.90;;;7.93;;
44248;SDS011;29923;48.718;9.272;2023-10-09T02:51:20;16.63;;;7.07;;
44248;SDS011;29923;48.718;9.272;2023-10-09T02:53:53;19.52;;;7.85;;
44248;SDS011;29923;48.718;9.272;2023-10-09T02:56:20;20.10;;;8.38;;
44248;SDS011;29923;48.718;9.272;2023-10-09T02:59:08;20.33;;;8.32;;
44248;SDS011;29923;48.718;9.272;2023-10-09T03:01:34;14.77;;;7.50;;
44248;SDS011;29923;48.718;9.272;2023-10-09T03:04:02;12.68;;;6.90;;
44248;SDS011;29923;48.718;9.272;2023-10-09T03:06:28;19.85;;;7.00;;
44248;SDS011;29923;48.718;9.272;2023-10-09T03:08:57;22.63;;;8.02;;
44248;SDS011;29923;48.718;9.272;2023-10-09T03:11:22;20.95;;;7.35;;
44248;SDS011;29923;48.718;9.272;2023-10-09T03:13:48;19.75;;;7.65;;
44248;SDS011;29923;48.718;9.272;2023-10-09T03:16:13;18.55;;;7.47;;
44248;SDS011;29923;48.718;9.272;2023-10-09T03:18:52;28.63;;;8.40;;
44248;SDS011;29923;48.718;9.272;2023-10-09T03:21:18;20.60;;;8.05;;
44248;SDS011;29923;48.718;9.272;2023-10-09T03:23:47;26.02;;;9.45;;
44248;SDS011;29923;48.718;9.272;2023-10-09T03:26:16;26.60;;;9.52;;
44248;SDS011;29923;48.718;9.272;2023-10-09T03:28:43;25.00;;;9.38;;
44248;SDS011;29923;48.718;9.272;2023-10-09T03:31:11;22.40;;;9.25;;
44248;SDS011;29923;48.718;9.272;2023-10-09T03:33:37;26.40;;;11.57;;
44248;SDS011;29923;48.718;9.272;2023-10-09T03:36:03;24.52;;;9.90;;
44248;SDS011;29923;48.718;9.272;2023-10-09T03:38:32;29.30;;;9.10;;
44248;SDS011;29923;48.718;9.272;2023-10-09T03:41:01;26.23;;;9.52;;
44248;SDS011;29923;48.718;9.272;2023-10-09T03:43:31;24.77;;;8.75;;
44248;SDS011;29923;48.718;9.272;2023-10-09T03:46:05;23.95;;;8.15;;
44248;SDS011;29923;48.718;9.272;2023-10-09T03:48:45;18.85;;;7.68;;
44248;SDS011;29923;48.718;9.272;2023-10-09T03:51:14;21.83;;;7.72;;
44248;SDS011;29923;48.718;9.272;2023-10-09T03:53:49;24.00;;;9.43;;
44248;SDS011;29923;48.718;9.272;2023-10-09T03:56:16;29.88;;;9.93;;
44248;SDS011;29923;48.718;9.272;2023-10-09T03:58:43;24.10;;;9.32;;
44248;SDS011;29923;48.718;9.272;2023-10-09T04:01:10;24.05;;;9.13;;
44248;SDS011;29923;48.718;9.272;2023-10-09T04:03:42;20.67;;;8.40;;
44248;SDS011;29923;48.718;9.272;2023-10-09T04:06:08;25.90;;;8.80;;
44248;SDS011;29923;48.718;9.272;2023-10-09T04:08:36;18.35;;;7.90;;
44248;SDS011;29923;48.718;9.272;2023-10-09T04:11:04;22.10;;;8.68;;
44248;SDS011;29923;48.718;9.272;2023-10-09T04:13:41;22.30;;;8.23;;
44248;SDS011;29923;48.718;9.272;2023-10-09T04:16:11;28.55;;;7.93;;
44248;SDS011;29923;48.718;9.272;2023-10-09T04:21:21;24.23;;;8.02;;
44248;SDS011;29923;48.718;9.272;2023-10-09T04:24:06;31.67;;;9.50;;
44248;SDS011;29923;48.718;9.272;2023-10-09T04:26:35;26.15;;;7.68;;
44248;SDS011;29923;48.718;9.272;2023-10-09T04:29:02;22.98;;;7.72;;
44248;SDS011;29923;48.718;9.272;2023-10-09T04:31:28;17.30;;;7.93;;
44248;SDS011;29923;48.718;9.272;2023-10-09T04:34:02;20.30;;;7.80;;
44248;SDS011;29923;48.718;9.272;2023-10-09T04:36:52;20.75;;;7.82;;
44248;SDS011;29923;48.718;9.272;2023-10-09T04:39:42;19.67;;;8.50;;
44248;SDS011;29923;48.718;9.272;2023-10-09T04:42:15;28.67;;;9.47;;
44248;SDS011;29923;48.718;9.272;2023-10-09T04:44:43;34.30;;;19.73;;
44248;SDS011;29923;48.718;9.272;2023-10-09T04:47:43;26.20;;;8.05;;
44248;SDS011;29923;48.718;9.272;2023-10-09T04:50:22;24.52;;;8.98;;
44248;SDS011;29923;48.718;9.272;2023-10-09T04:52:54;25.15;;;8.38;;
44248;SDS011;29923;48.718;9.272;2023-10-09T04:55:19;28.70;;;8.98;;
44248;SDS011;29923;48.718;9.272;2023-10-09T04:57:49;19.88;;;7.90;;
44248;SDS011;29923;48.718;9.272;2023-10-09T05:00:34;27.48;;;8.27;;
44248;SDS011;29923;48.718;9.272;2023-10-09T05:03:00;33.35;;;7.50;;
44248;SDS011;29923;48.718;9.272;2023-10-09T05:05:35;31.80;;;8.15;;
44248;SDS011;29923;48.718;9.272;2023-10-09T05:08:07;19.45;;;7.65;;
44248;SDS011;29923;48.718;9.272;2023-10-09T05:10:54;20.02;;;7.97;;
44248;SDS011;29923;48.718;9.272;2023-10-09T05:13:27;23.02;;;7.35;;
44248;SDS011;29923;48.718;9.272;2023-10-09T05:16:08;25.65;;;7.75;;
44248;SDS011;29923;48.718;9.272;2023-10-09T05:18:45;22.65;;;7.63;;
44248;SDS011;29923;48.718;9.272;2023-10-09T05:21:20;33.00;;;7.53;;
44248;SDS011;29923;48.718;9.272;2023-10-09T05:23:55;24.23;;;7.53;;
44248;SDS011;29923;48.718;9.272;2023-10-09T05:26:39;27.35;;;7.68;;
44248;SDS011;29923;48.718;9.272;2023-10-09T05:29:14;18.52;;;6.70;;
44248;SDS011;29923;48.718;9.272;2023-10-09T05:31:58;29.98;;;6.97;;
44248;SDS011;29923;48.718;9.272;2023-10-09T05:34:27;20.88;;;7.55;;
44248;SDS011;29923;48.718;9.272;2023-10-09T05:37:05;25.20;;;7.47;;
44248;SDS011;29923;48.718;9.272;2023-10-09T05:39:50;23.73;;;7.20;;
44248;SDS011;29923;48.718;9.272;2023-10-09T05:42:34;23.77;;;7.63;;
44248;SDS011;29923;48.718;9.272;2023-10-09T05:45:05;18.33;;;6.65;;
44248;SDS011;29923;48.718;9.272;2023-10-09T05:47:34;28.80;;;7.32;;
44248;SDS011;29923;48.718;9.272;2023-10-09T05:49:59;36.72;;;7.72;;
44248;SDS011;29923;48.718;9.272;2023-10-09T05:52:34;24.92;;;7.32;;
44248;SDS011;29923;48.718;9.272;2023-10-09T05:55:02;26.05;;;6.85;;
44248;SDS011;29923;48.718;9.272;2023-10-09T05:57:47;26.55;;;7.15;;
44248;SDS011;29923;48.718;9.272;2023-10-09T06:03:14;22.38;;;7.45;;
44248;SDS011;29923;48.718;9.272;2023-10-09T06:08:21;30.63;;;6.90;;
44248;SDS011;29923;48.718;9.272;2023-10-09T06:11:10;27.65;;;6.53;;
44248;SDS011;29923;48.718;9.272;2023-10-09T06:13:56;21.75;;;6.28;;
44248;SDS011;29923;48.718;9.272;2023-10-09T06:16:34;31.85;;;7.25;;
44248;SDS011;29923;48.718;9.272;2023-10-09T06:19:18;31.83;;;7.72;;
44248;SDS011;29923;48.718;9.272;2023-10-09T06:21:59;20.73;;;7.32;;
44248;SDS011;29923;48.718;9.272;2023-10-09T06:24:36;22.17;;;7.35;;
44248;SDS011;29923;48.718;9.272;2023-10-09T06:27:20;20.15;;;6.72;;
44248;SDS011;29923;48.718;9.272;2023-10-09T06:29:55;29.25;;;6.68;;
44248;SDS011;29923;48.718;9.272;2023-10-09T06:32:36;22.92;;;6.90;;
44248;SDS011;29923;48.718;9.272;2023-10-09T06:35:02;22.27;;;6.93;;
44248;SDS011;29923;48.718;9.272;2023-10-09T06:37:47;34.47;;;8.15;;
44248;SDS011;29923;48.718;9.272;2023-10-09T06:40:28;20.88;;;7.13;;
44248;SDS011;29923;48.718;9.272;2023-10-09T06:43:12;17.55;;;7.13;;
44248;SDS011;29923;48.718;9.272;2023-10-09T06:45:47;26.00;;;8.00;;
44248;SDS011;29923;48.718;9.272;2023-10-09T06:48:37;24.52;;;8.00;;
44248;SDS011;29923;48.718;9.272;2023-10-09T06:51:03;28.90;;;7.95;;
44248;SDS011;29923;48.718;9.272;2023-10-09T06:53:48;27.42;;;7.85;;
44248;SDS011;29923;48.718;9.272;2023-10-09T06:56:16;23.90;;;6.53;;
44248;SDS011;29923;48.718;9.272;2023-10-09T06:59:02;24.80;;;7.25;;
44248;SDS011;29923;48.718;9.272;2023-10-09T07:01:39;25.63;;;6.68;;
44248;SDS011;29923;48.718;9.272;2023-10-09T07:04:07;31.50;;;7.63;;
44248;SDS011;29923;48.718;9.272;2023-10-09T07:07:05;27.20;;;6.70;;
44248;SDS011;29923;48.718;9.272;2023-10-09T07:09:45;26.13;;;7.00;;
44248;SDS011;29923;48.718;9.272;2023-10-09T07:12:33;32.17;;;8.30;;
44248;SDS011;29923;48.718;9.272;2023-10-09T07:15:00;23.48;;;6.97;;
44248;SDS011;29923;48.718;9.272;2023-10-09T07:17:49;29.17;;;6.72;;
44248;SDS011;29923;48.718;9.272;2023-10-09T07:20:17;33.05;;;6.35;;
44248;SDS011;29923;48.718;9.272;2023-10-09T07:23:01;29.38;;;6.10;;
44248;SDS011;29923;48.718;9.272;2023-10-09T07:25:39;28.35;;;7.45;;
44248;SDS011;29923;48.718;9.272;2023-10-09T07:28:19;37.72;;;6.90;;
44248;SDS011;29923;48.718;9.272;2023-10-09T07:31:01;31.65;;;7.00;;
44248;SDS011;29923;48.718;9.272;2023-10-09T07:33:28;23.75;;;6.40;;
44248;SDS011;29923;48.718;9.272;2023-10-09T07:36:01;29.30;;;6.25;;
44248;SDS011;29923;48.718;9.272;2023-10-09T07:38:31;38.53;;;7.05;;
44248;SDS011;29923;48.718;9.272;2023-10-09T07:41:09;41.72;;;6.68;;
44248;SDS011;29923;48.718;9.272;2023-10-09T07:43:35;27.95;;;6.57;;
44248;SDS011;29923;48.718;9.272;2023-10-09T07:46:08;37.53;;;6.93;;
44248;SDS011;29923;48.718;9.272;2023-10-09T07:48:53;39.70;;;6.68;;
44248;SDS011;29923;48.718;9.272;2023-10-09T07:51:20;30.23;;;6.05;;
44248;SDS011;29923;48.718;9.272;2023-10-09T07:53:55;22.85;;;6.07;;
44248;SDS011;29923;48.718;9.272;2023-10-09T07:56:25;32.90;;;7.28;;
44248;SDS011;29923;48.718;9.272;2023-10-09T07:58:55;29.85;;;6.07;;
44248;SDS011;29923;48.718;9.272;2023-10-09T08:01:25;40.75;;;7.18;;
44248;SDS011;29923;48.718;9.272;2023-10-09T08:03:53;38.85;;;7.95;;
44248;SDS011;29923;48.718;9.272;2023-10-09T08:06:30;18.55;;;5.95;;
44248;SDS011;29923;48.718;9.272;2023-10-09T08:09:10;32.60;;;6.20;;
44248;SDS011;29923;48.718;9.272;2023-10-09T08:11:42;31.42;;;6.47;;
44248;SDS011;29923;48.718;9.272;2023-10-09T08:14:12;26.65;;;5.65;;
44248;SDS011;29923;48.718;9.272;2023-10-09T08:16:50;29.75;;;5.95;;
44248;SDS011;29923;48.718;9.272;2023-10-09T08:19:31;29.55;;;5.97;;
44248;SDS011;29923;48.718;9.272;2023-10-09T08:21:59;31.65;;;5.75;;
44248;SDS011;29923;48.718;9.272;2023-10-09T08:25:03;41.78;;;6.53;;
44248;SDS011;29923;48.718;9.272;2023-10-09T08:27:29;30.85;;;5.97;;
44248;SDS011;29923;48.718;9.272;2023-10-09T08:29:55;31.95;;;6.25;;
44248;SDS011;29923;48.718;9.272;2023-10-09T08:32:39;25.73;;;5.50;;
44248;SDS011;29923;48.718;9.272;2023-10-09T08:35:07;31.52;;;5.55;;
44248;SDS011;29923;48.718;9.272;2023-10-09T08:37:45;31.17;;;5.57;;
44248;SDS011;29923;48.718;9.272;2023-10-09T08:40:13;22.95;;;5.75;;
44248;SDS011;29923;48.718;9.272;2023-10-09T08:42:43;31.50;;;6.50;;
44248;SDS011;29923;48.718;9.272;2023-10-09T08:45:14;28.48;;;5.53;;
44248;SDS011;29923;48.718;9.272;2023-10-09T08:47:41;36.20;;;5.55;;
44248;SDS011;29923;48.718;9.272;2023-10-09T08:50:07;22.02;;;6.00;;
44248;SDS011;29923;48.718;9.272;2023-10-09T08:52:38;21.67;;;5.40;;
44248;SDS011;29923;48.718;9.272;2023-10-09T08:55:03;23.30;;;5.05;;
44248;SDS011;29923;48.718;9.272;2023-10-09T08:57:30;25.35;;;5.03;;
44248;SDS011;29923;48.718;9.272;2023-10-09T08:59:56;35.28;;;5.68;;
44248;SDS011;29923;48.718;9.272;2023-10-09T09:02:21;27.30;;;5.03;;
44248;SDS011;29923;48.718;9.272;2023-10-09T09:04:48;34.05;;;5.82;;
44248;SDS011;29923;48.718;9.272;2023-10-09T09:07:25;22.67;;;5.65;;
44248;SDS011;29923;48.718;9.272;2023-10-09T09:10:00;30.70;;;5.60;;
44248;SDS011;29923;48.718;9.272;2023-10-09T09:12:49;27.77;;;5.90;;
44248;SDS011;29923;48.718;9.272;2023-10-09T09:15:26;19.23;;;5.30;;
44248;SDS011;29923;48.718;9.272;2023-10-09T09:17:52;30.38;;;7.00;;
44248;SDS011;29923;48.718;9.272;2023-10-09T09:20:31;28.17;;;5.22;;
44248;SDS011;29923;48.718;9.272;2023-10-09T09:23:00;24.98;;;4.88;;
44248;SDS011;29923;48.718;9.272;2023-10-09T09:25:50;20.55;;;4.55;;
44248;SDS011;29923;48.718;9.272;2023-10-09T09:28:24;26.75;;;4.97;;
44248;SDS011;29923;48.718;9.272;2023-10-09T09:30:52;29.05;;;5.07;;
44248;SDS011;29923;48.718;9.272;2023-10-09T09:36:07;26.33;;;5.10;;
44248;SDS011;29923;48.718;9.272;2023-10-09T09:38:36;32.17;;;5.68;;
44248;SDS011;29923;48.718;9.272;2023-10-09T09:41:14;25.55;;;5.18;;
44248;SDS011;29923;48.718;9.272;2023-10-09T09:43:53;27.58;;;5.15;;
44248;SDS011;29923;48.718;9.272;2023-10-09T09:46:24;28.20;;;5.00;;
44248;SDS011;29923;48.718;9.272;2023-10-09T09:49:01;32.58;;;5.63;;
44248;SDS011;29923;48.718;9.272;2023-10-09T09:51:32;29.23;;;5.90;;
44248;SDS011;29923;48.718;9.272;2023-10-09T09:53:57;31.23;;;4.80;;
44248;SDS011;29923;48.718;9.272;2023-10-09T09:56:26;30.60;;;4.90;;
44248;SDS011;29923;48.718;9.272;2023-10-09T09:58:53;24.90;;;4.90;;
44248;SDS011;29923;48.718;9.272;2023-10-09T10:01:24;25.67;;;5.35;;
44248;SDS011;29923;48.718;9.272;2023-10-09T10:03:56;24.67;;;4.40;;
44248;SDS011;29923;48.718;9.272;2023-10-09T10:06:24;27.73;;;4.90;;
44248;SDS011;29923;48.718;9.272;2023-10-09T10:08:53;23.05;;;4.80;;
44248;SDS011;29923;48.718;9.272;2023-10-09T10:14:09;23.77;;;4.50;;
44248;SDS011;29923;48.718;9.272;2023-10-09T10:17:19;19.83;;;4.97;;
44248;SDS011;29923;48.718;9.272;2023-10-09T10:20:05;26.08;;;5.10;;
44248;SDS011;29923;48.718;9.272;2023-10-09T10:22:43;26.70;;;6.15;;
44248;SDS011;29923;48.718;9.272;2023-10-09T10:25:33;24.70;;;5.07;;
44248;SDS011;29923;48.718;9.272;2023-10-09T10:28:16;25.95;;;4.68;;
44248;SDS011;29923;48.718;9.272;2023-10-09T10:31:06;32.42;;;4.97;;
44248;SDS011;29923;48.718;9.272;2023-10-09T10:36:23;26.90;;;4.45;;
44248;SDS011;29923;48.718;9.272;2023-10-09T10:39:04;23.92;;;5.45;;
44248;SDS011;29923;48.718;9.272;2023-10-09T10:41:35;18.20;;;4.93;;
44248;SDS011;29923;48.718;9.272;2023-10-09T10:44:28;25.58;;;5.82;;
44248;SDS011;29923;48.718;9.272;2023-10-09T10:47:10;38.92;;;6.20;;
44248;SDS011;29923;48.718;9.272;2023-10-09T10:49:53;18.60;;;4.77;;
44248;SDS011;29923;48.718;9.272;2023-10-09T10:52:38;35.53;;;5.88;;
44248;SDS011;29923;48.718;9.272;2023-10-09T10:55:13;26.52;;;5.63;;
44248;SDS011;29923;48.718;9.272;2023-10-09T10:57:51;28.00;;;5.57;;
44248;SDS011;29923;48.718;9.272;2023-10-09T11:00:25;29.40;;;5.55;;
44248;SDS011;29923;48.718;9.272;2023-10-09T11:03:09;32.33;;;6.13;;
44248;SDS011;29923;48.718;9.272;2023-10-09T11:05:54;37.78;;;5.35;;
44248;SDS011;29923;48.718;9.272;2023-10-09T11:08:23;34.28;;;6.50;;
44248;SDS011;29923;48.718;9.272;2023-10-09T11:10:52;31.05;;;5.65;;
44248;SDS011;29923;48.718;9.272;2023-10-09T11:13:22;28.10;;;4.97;;
44248;SDS011;29923;48.718;9.272;2023-10-09T11:16:17;26.95;;;5.05;;
44248;SDS011;29923;48.718;9.272;2023-10-09T11:19:06;25.38;;;5.97;;
44248;SDS011;29923;48.718;9.272;2023-10-09T11:21:54;35.03;;;6.18;;
44248;SDS011;29923;48.718;9.272;2023-10-09T11:24:33;32.85;;;5.68;;
44248;SDS011;29923;48.718;9.272;2023-10-09T11:26:59;28.48;;;4.75;;
44248;SDS011;29923;48.718;9.272;2023-10-09T11:29:31;30.98;;;5.47;;
44248;SDS011;29923;48.718;9.272;2023-10-09T11:32:17;30.05;;;6.00;;
44248;SDS011;29923;48.718;9.272;2023-10-09T11:34:44;35.17;;;6.07;;
44248;SDS011;29923;48.718;9.272;2023-10-09T11:37:17;26.42;;;5.15;;
44248;SDS011;29923;48.718;9.272;2023-10-09T11:39:57;43.65;;;6.97;;
44248;SDS011;29923;48.718;9.272;2023-10-09T11:42:24;34.78;;;5.75;;
44248;SDS011;29923;48.718;9.272;2023-10-09T11:45:24;32.53;;;6.50;;
44248;SDS011;29923;48.718;9.272;2023-10-09T11:47:53;29.63;;;5.90;;
44248;SDS011;29923;48.718;9.272;2023-10-09T11:53:18;36.72;;;6.18;;
44248;SDS011;29923;48.718;9.272;2023-10-09T11:55:50;31.33;;;5.90;;
44248;SDS011;29923;48.718;9.272;2023-10-09T11:58:17;33.50;;;6.53;;
44248;SDS011;29923;48.718;9.272;2023-10-09T12:00:49;37.05;;;6.85;;
44248;SDS011;29923;48.718;9.272;2023-10-09T12:03:28;30.25;;;5.35;;
44248;SDS011;29923;48.718;9.272;2023-10-09T12:05:57;40.63;;;6.38;;
44248;SDS011;29923;48.718;9.272;2023-10-09T12:08:26;20.02;;;5.88;;
44248;SDS011;29923;48.718;9.272;2023-10-09T12:10:52;39.28;;;6.50;;
44248;SDS011;29923;48.718;9.272;2023-10-09T12:13:20;40.63;;;7.18;;
44248;SDS011;29923;48.718;9.272;2023-10-09T12:15:47;43.03;;;6.50;;
44248;SDS011;29923;48.718;9.272;2023-10-09T12:18:13;42.45;;;6.43;;
44248;SDS011;29923;48.718;9.272;2023-10-09T12:20:43;35.45;;;6.72;;
44248;SDS011;29923;48.718;9.272;2023-10-09T12:23:20;29.33;;;5.75;;
44248;SDS011;29923;48.718;9.272;2023-10-09T12:25:48;35.85;;;6.95;;
44248;SDS011;29923;48.718;9.272;2023-10-09T12:28:14;39.58;;;6.22;;
44248;SDS011;29923;48.718;9.272;2023-10-09T12:30:40;38.83;;;6.25;;
44248;SDS011;29923;48.718;9.272;2023-10-09T12:33:06;42.70;;;6.70;;
44248;SDS011;29923;48.718;9.272;2023-10-09T12:35:36;33.25;;;6.57;;
44248;SDS011;29923;48.718;9.272;2023-10-09T12:38:02;28.67;;;7.30;;
44248;SDS011;29923;48.718;9.272;2023-10-09T12:40:28;39.75;;;6.50;;
44248;SDS011;29923;48.718;9.272;2023-10-09T12:42:56;36.97;;;5.80;;
44248;SDS011;29923;48.718;9.272;2023-10-09T12:45:25;40.42;;;6.70;;
44248;SDS011;29923;48.718;9.272;2023-10-09T12:47:54;34.60;;;7.00;;
44248;SDS011;29923;48.718;9.272;2023-10-09T12:50:28;36.38;;;6.53;;
44248;SDS011;29923;48.718;9.272;2023-10-09T12:52:57;34.30;;;6.40;;
44248;SDS011;29923;48.718;9.272;2023-10-09T12:55:40;44.80;;;5.72;;
44248;SDS011;29923;48.718;9.272;2023-10-09T12:58:07;39.25;;;6.80;;
44248;SDS011;29923;48.718;9.272;2023-10-09T13:00:37;38.63;;;6.75;;
44248;SDS011;29923;48.718;9.272;2023-10-09T13:03:07;27.83;;;7.13;;
44248;SDS011;29923;48.718;9.272;2023-10-09T13:05:42;39.30;;;6.38;;
44248;SDS011;29923;48.718;9.272;2023-10-09T13:08:17;37.10;;;6.97;;
44248;SDS011;29923;48.718;9.272;2023-10-09T13:11:02;35.50;;;6.57;;
44248;SDS011;29923;48.718;9.272;2023-10-09T13:13:35;27.65;;;5.93;;
44248;SDS011;29923;48.718;9.272;2023-10-09T13:16:13;34.58;;;6.93;;
44248;SDS011;29923;48.718;9.272;2023-10-09T13:18:48;24.98;;;6.57;;
44248;SDS011;29923;48.718;9.272;2023-10-09T13:21:27;27.35;;;6.22;;
44248;SDS011;29923;48.718;9.272;2023-10-09T13:23:56;29.48;;;5.32;;
44248;SDS011;29923;48.718;9.272;2023-10-09T13:26:23;38.60;;;6.50;;
44248;SDS011;29923;48.718;9.272;2023-10-09T13:28:50;31.70;;;6.25;;
44248;SDS011;29923;48.718;9.272;2023-10-09T13:31:17;26.58;;;6.55;;
44248;SDS011;29923;48.718;9.272;2023-10-09T13:33:43;27.90;;;6.53;;
44248;SDS011;29923;48.718;9.272;2023-10-09T13:36:13;30.20;;;5.90;;
44248;SDS011;29923;48.718;9.272;2023-10-09T13:38:51;36.08;;;5.88;;
44248;SDS011;29923;48.718;9.272;2023-10-09T13:41:18;28.67;;;6.60;;
44248;SDS011;29923;48.718;9.272;2023-10-09T13:43:44;17.10;;;5.72;;
44248;SDS011;29923;48.718;9.272;2023-10-09T13:46:12;28.08;;;6.38;;
44248;SDS011;29923;48.718;9.272;2023-10-09T13:48:41;25.40;;;6.07;;
44248;SDS011;29923;48.718;9.272;2023-10-09T13:51:08;29.15;;;5.90;;
44248;SDS011;29923;48.718;9.272;2023-10-09T13:53:43;45.35;;;8.35;;
44248;SDS011;29923;48.718;9.272;2023-10-09T13:56:15;23.35;;;5.72;;
44248;SDS011;29923;48.718;9.272;2023-10-09T13:58:50;26.13;;;6.22;;
44248;SDS011;29923;48.718;9.272;2023-10-09T14:01:16;26.87;;;5.97;;
44248;SDS011;29923;48.718;9.272;2023-10-09T14:03:58;31.65;;;6.10;;
44248;SDS011;29923;48.718;9.272;2023-10-09T14:06:25;24.13;;;6.10;;
44248;SDS011;29923;48.718;9.272;2023-10-09T14:08:57;28.30;;;6.43;;
44248;SDS011;29923;48.718;9.272;2023-10-09T14:11:30;24.17;;;6.07;;
44248;SDS011;29923;48.718;9.272;2023-10-09T14:14:02;27.63;;;6.03;;
44248;SDS011;29923;48.718;9.272;2023-10-09T14:16:28;25.98;;;6.15;;
44248;SDS011;29923;48.718;9.272;2023-10-09T14:18:55;25.33;;;5.70;;
44248;SDS011;29923;48.718;9.272;2023-10-09T14:21:23;24.42;;;6.22;;
44248;SDS011;29923;48.718;9.272;2023-10-09T14:23:51;23.25;;;6.65;;
44248;SDS011;29923;48.718;9.272;2023-10-09T14:26:22;27.35;;;6.72;;
44248;SDS011;29923;48.718;9.272;2023-10-09T14:28:50;17.60;;;5.30;;
44248;SDS011;29923;48.718;9.272;2023-10-09T14:31:17;21.23;;;6.03;;
44248;SDS011;29923;48.718;9.272;2023-10-09T14:33:47;21.73;;;5.82;;
44248;SDS011;29923;48.718;9.272;2023-10-09T14:36:16;25.75;;;5.75;;
44248;SDS011;29923;48.718;9.272;2023-10-09T14:38:43;24.95;;;5.95;;
44248;SDS011;29923;48.718;9.272;2023-10-09T14:41:11;24.02;;;6.07;;
44248;SDS011;29923;48.718;9.272;2023-10-09T14:43:37;21.25;;;5.38;;
44248;SDS011;29923;48.718;9.272;2023-10-09T14:46:03;21.17;;;6.28;;
44248;SDS011;29923;48.718;9.272;2023-10-09T14:48:35;34.67;;;7.05;;
44248;SDS011;29923;48.718;9.272;2023-10-09T14:51:02;25.83;;;5.90;;
44248;SDS011;29923;48.718;9.272;2023-10-09T14:53:32;33.03;;;5.80;;
44248;SDS011;29923;48.718;9.272;2023-10-09T14:56:00;25.08;;;5.45;;
44248;SDS011;29923;48.718;9.272;2023-10-09T14:58:33;27.83;;;5.80;;
44248;SDS011;29923;48.718;9.272;2023-10-09T15:01:09;22.58;;;6.40;;
44248;SDS011;29923;48.718;9.272;2023-10-09T15:03:35;30.67;;;5.57;;
44248;SDS011;29923;48.718;9.272;2023-10-09T15:06:02;31.25;;;7.22;;
44248;SDS011;29923;48.718;9.272;2023-10-09T15:08:28;27.40;;;6.00;;
44248;SDS011;29923;48.718;9.272;2023-10-09T15:10:54;22.70;;;5.55;;
44248;SDS011;29923;48.718;9.272;2023-10-09T15:13:24;33.75;;;6.25;;
44248;SDS011;29923;48.718;9.272;2023-10-09T15:15:53;26.65;;;6.50;;
44248;SDS011;29923;48.718;9.272;2023-10-09T15:18:19;21.05;;;5.53;;
44248;SDS011;29923;48.718;9.272;2023-10-09T15:20:46;31.58;;;6.15;;
44248;SDS011;29923;48.718;9.272;2023-10-09T15:23:12;29.42;;;6.45;;
44248;SDS011;29923;48.718;9.272;2023-10-09T15:25:37;30.95;;;6.68;;
44248;SDS011;29923;48.718;9.272;2023-10-09T15:28:05;26.70;;;6.63;;
44248;SDS011;29923;48.718;9.272;2023-10-09T15:30:32;27.85;;;6.10;;
44248;SDS011;29923;48.718;9.272;2023-10-09T15:32:58;30.77;;;6.47;;
44248;SDS011;29923;48.718;9.272;2023-10-09T15:35:24;27.17;;;6.03;;